sensor_id;sensor_type;location;lat;lon;timestamp;P1;durP1;ratioP1;P2;durP2;ratioP2
64029;SDS011;50277;52.064;4.492;2022-11-27T00:01:55;19.00;;;5.07;;
64029;SDS011;50277;52.064;4.492;2022-11-27T00:04:21;15.20;;;4.53;;
64029;SDS011;50277;52.064;4.492;2022-11-27T00:06:46;12.25;;;4.40;;
64029;SDS011;50277;52.064;4.492;2022-11-27T00:09:12;13.45;;;5.00;;
64029;SDS011;50277;52.064;4.492;2022-11-27T00:11:39;15.98;;;5.57;;
64029;SDS011;50277;52.064;4.492;2022-11-27T00:14:05;13.63;;;4.30;;
64029;SDS011;50277;52.064;4.492;2022-11-27T00:16:31;17.77;;;5.28;;
64029;SDS011;50277;52.064;4.492;2022-11-27T00:18:56;17.80;;;4.70;;
64029;SDS011;50277;52.064;4.492;2022-11-27T00:21:22;14.20;;;4.45;;
64029;SDS011;50277;52.064;4.492;2022-11-27T00:23:50;13.48;;;4.43;;
64029;SDS011;50277;52.064;4.492;2022-11-27T00:26:16;17.10;;;4.65;;
64029;SDS011;50277;52.064;4.492;2022-11-27T00:28:42;12.90;;;4.68;;
64029;SDS011;50277;52.064;4.492;2022-11-27T00:31:12;15.52;;;4.93;;
64029;SDS011;50277;52.064;4.492;2022-11-27T00:33:39;15.68;;;4.93;;
64029;SDS011;50277;52.064;4.492;2022-11-27T00:36:05;8.73;;;4.20;;
64029;SDS011;50277;52.064;4.492;2022-11-27T00:38:31;8.88;;;4.90;;
64029;SDS011;50277;52.064;4.492;2022-11-27T00:40:58;10.57;;;5.68;;
64029;SDS011;50277;52.064;4.492;2022-11-27T00:43:24;10.82;;;4.25;;
64029;SDS011;50277;52.064;4.492;2022-11-27T00:45:49;9.00;;;3.70;;
64029;SDS011;50277;52.064;4.492;2022-11-27T00:48:15;11.48;;;4.03;;
64029;SDS011;50277;52.064;4.492;2022-11-27T00:50:40;15.55;;;3.95;;
64029;SDS011;50277;52.064;4.492;2022-11-27T00:53:05;9.27;;;3.85;;
64029;SDS011;50277;52.064;4.492;2022-11-27T00:55:31;12.90;;;3.60;;
64029;SDS011;50277;52.064;4.492;2022-11-27T00:57:56;10.43;;;4.20;;
64029;SDS011;50277;52.064;4.492;2022-11-27T01:00:21;12.70;;;4.15;;
64029;SDS011;50277;52.064;4.492;2022-11-27T01:02:47;13.20;;;3.60;;
64029;SDS011;50277;52.064;4.492;2022-11-27T01:05:12;10.30;;;4.15;;
64029;SDS011;50277;52.064;4.492;2022-11-27T01:07:37;11.38;;;4.07;;
64029;SDS011;50277;52.064;4.492;2022-11-27T01:10:03;12.35;;;3.38;;
64029;SDS011;50277;52.064;4.492;2022-11-27T01:12:29;12.98;;;3.90;;
64029;SDS011;50277;52.064;4.492;2022-11-27T01:14:54;10.40;;;4.00;;
64029;SDS011;50277;52.064;4.492;2022-11-27T01:17:19;13.68;;;4.20;;
64029;SDS011;50277;52.064;4.492;2022-11-27T01:19:46;12.00;;;4.25;;
64029;SDS011;50277;52.064;4.492;2022-11-27T01:22:11;11.00;;;3.50;;
64029;SDS011;50277;52.064;4.492;2022-11-27T01:24:36;13.85;;;3.60;;
64029;SDS011;50277;52.064;4.492;2022-11-27T01:27:02;13.05;;;3.42;;
64029;SDS011;50277;52.064;4.492;2022-11-27T01:29:27;11.93;;;3.65;;
64029;SDS011;50277;52.064;4.492;2022-11-27T01:31:53;10.32;;;3.55;;
64029;SDS011;50277;52.064;4.492;2022-11-27T01:34:18;13.70;;;4.07;;
64029;SDS011;50277;52.064;4.492;2022-11-27T01:36:44;17.42;;;3.88;;
64029;SDS011;50277;52.064;4.492;2022-11-27T01:39:13;13.13;;;4.47;;
64029;SDS011;50277;52.064;4.492;2022-11-27T01:41:39;12.02;;;4.07;;
64029;SDS011;50277;52.064;4.492;2022-11-27T01:49:36;14.10;;;3.38;;
64029;SDS011;50277;52.064;4.492;2022-11-27T01:52:08;13.93;;;4.18;;
64029;SDS011;50277;52.064;4.492;2022-11-27T01:54:49;7.05;;;3.63;;
64029;SDS011;50277;52.064;4.492;2022-11-27T02:00:08;15.15;;;3.42;;
64029;SDS011;50277;52.064;4.492;2022-11-27T02:02:34;15.30;;;4.35;;
64029;SDS011;50277;52.064;4.492;2022-11-27T02:04:59;7.32;;;2.88;;
64029;SDS011;50277;52.064;4.492;2022-11-27T02:07:24;8.00;;;3.45;;
64029;SDS011;50277;52.064;4.492;2022-11-27T02:09:50;10.85;;;4.13;;
64029;SDS011;50277;52.064;4.492;2022-11-27T02:14:53;10.05;;;3.30;;
64029;SDS011;50277;52.064;4.492;2022-11-27T02:37:05;8.70;;;3.25;;
64029;SDS011;50277;52.064;4.492;2022-11-27T02:40:00;12.25;;;3.95;;
64029;SDS011;50277;52.064;4.492;2022-11-27T02:42:21;9.70;;;2.95;;
64029;SDS011;50277;52.064;4.492;2022-11-27T02:44:57;12.00;;;3.78;;
64029;SDS011;50277;52.064;4.492;2022-11-27T02:47:25;14.32;;;3.97;;
64029;SDS011;50277;52.064;4.492;2022-11-27T02:49:52;5.82;;;3.03;;
64029;SDS011;50277;52.064;4.492;2022-11-27T02:52:21;19.15;;;4.63;;
64029;SDS011;50277;52.064;4.492;2022-11-27T02:54:47;10.65;;;3.28;;
64029;SDS011;50277;52.064;4.492;2022-11-27T02:57:14;13.20;;;3.55;;
64029;SDS011;50277;52.064;4.492;2022-11-27T02:59:40;14.65;;;4.05;;
64029;SDS011;50277;52.064;4.492;2022-11-27T03:02:08;8.60;;;3.40;;
64029;SDS011;50277;52.064;4.492;2022-11-27T03:04:36;11.52;;;3.45;;
64029;SDS011;50277;52.064;4.492;2022-11-27T03:07:07;11.20;;;3.50;;
64029;SDS011;50277;52.064;4.492;2022-11-27T03:09:44;10.75;;;3.55;;
64029;SDS011;50277;52.064;4.492;2022-11-27T03:12:11;17.98;;;5.00;;
64029;SDS011;50277;52.064;4.492;2022-11-27T03:14:37;11.20;;;3.28;;
64029;SDS011;50277;52.064;4.492;2022-11-27T03:19:42;11.43;;;3.42;;
64029;SDS011;50277;52.064;4.492;2022-11-27T03:22:12;8.43;;;3.00;;
64029;SDS011;50277;52.064;4.492;2022-11-27T03:24:38;13.38;;;3.08;;
64029;SDS011;50277;52.064;4.492;2022-11-27T03:27:04;14.55;;;3.15;;
64029;SDS011;50277;52.064;4.492;2022-11-27T03:29:33;11.13;;;3.08;;
64029;SDS011;50277;52.064;4.492;2022-11-27T03:32:09;7.97;;;3.25;;
64029;SDS011;50277;52.064;4.492;2022-11-27T03:34:34;13.52;;;4.05;;
64029;SDS011;50277;52.064;4.492;2022-11-27T03:37:00;12.68;;;3.45;;
64029;SDS011;50277;52.064;4.492;2022-11-27T03:39:26;10.10;;;3.20;;
64029;SDS011;50277;52.064;4.492;2022-11-27T03:42:26;10.68;;;2.90;;
64029;SDS011;50277;52.064;4.492;2022-11-27T03:48:05;15.02;;;3.85;;
64029;SDS011;50277;52.064;4.492;2022-11-27T03:56:38;10.43;;;2.80;;
64029;SDS011;50277;52.064;4.492;2022-11-27T03:59:10;9.23;;;2.97;;
64029;SDS011;50277;52.064;4.492;2022-11-27T04:01:39;7.80;;;2.75;;
64029;SDS011;50277;52.064;4.492;2022-11-27T04:04:05;11.63;;;3.28;;
64029;SDS011;50277;52.064;4.492;2022-11-27T04:06:30;7.50;;;2.67;;
64029;SDS011;50277;52.064;4.492;2022-11-27T04:08:55;11.32;;;2.92;;
64029;SDS011;50277;52.064;4.492;2022-11-27T04:11:21;11.13;;;3.42;;
64029;SDS011;50277;52.064;4.492;2022-11-27T04:13:46;7.88;;;3.08;;
64029;SDS011;50277;52.064;4.492;2022-11-27T04:16:11;8.05;;;3.10;;
64029;SDS011;50277;52.064;4.492;2022-11-27T04:18:37;7.93;;;2.78;;
64029;SDS011;50277;52.064;4.492;2022-11-27T04:21:02;9.10;;;3.15;;
64029;SDS011;50277;52.064;4.492;2022-11-27T04:23:27;11.55;;;3.42;;
64029;SDS011;50277;52.064;4.492;2022-11-27T04:25:53;10.52;;;2.78;;
64029;SDS011;50277;52.064;4.492;2022-11-27T04:28:18;11.40;;;3.47;;
64029;SDS011;50277;52.064;4.492;2022-11-27T04:30:44;9.25;;;3.13;;
64029;SDS011;50277;52.064;4.492;2022-11-27T04:33:09;14.90;;;3.17;;
64029;SDS011;50277;52.064;4.492;2022-11-27T04:35:35;11.45;;;3.08;;
64029;SDS011;50277;52.064;4.492;2022-11-27T04:38:00;12.80;;;3.53;;
64029;SDS011;50277;52.064;4.492;2022-11-27T04:40:26;9.15;;;2.83;;
64029;SDS011;50277;52.064;4.492;2022-11-27T04:42:51;16.85;;;4.28;;
64029;SDS011;50277;52.064;4.492;2022-11-27T04:45:17;10.88;;;3.05;;
64029;SDS011;50277;52.064;4.492;2022-11-27T04:47:42;8.23;;;2.55;;
64029;SDS011;50277;52.064;4.492;2022-11-27T04:50:08;10.77;;;3.58;;
64029;SDS011;50277;52.064;4.492;2022-11-27T04:52:34;7.25;;;2.83;;
64029;SDS011;50277;52.064;4.492;2022-11-27T04:54:59;9.70;;;2.85;;
64029;SDS011;50277;52.064;4.492;2022-11-27T04:57:25;7.72;;;2.83;;
64029;SDS011;50277;52.064;4.492;2022-11-27T04:59:50;10.27;;;3.33;;
64029;SDS011;50277;52.064;4.492;2022-11-27T05:02:15;8.48;;;2.92;;
64029;SDS011;50277;52.064;4.492;2022-11-27T05:04:41;8.00;;;2.53;;
64029;SDS011;50277;52.064;4.492;2022-11-27T05:07:06;7.70;;;2.92;;
64029;SDS011;50277;52.064;4.492;2022-11-27T05:09:31;8.50;;;2.28;;
64029;SDS011;50277;52.064;4.492;2022-11-27T05:11:57;9.75;;;3.13;;
64029;SDS011;50277;52.064;4.492;2022-11-27T05:14:22;10.43;;;2.70;;
64029;SDS011;50277;52.064;4.492;2022-11-27T05:16:53;8.88;;;3.03;;
64029;SDS011;50277;52.064;4.492;2022-11-27T05:19:20;9.40;;;2.65;;
64029;SDS011;50277;52.064;4.492;2022-11-27T05:21:47;10.43;;;3.05;;
64029;SDS011;50277;52.064;4.492;2022-11-27T05:24:14;11.45;;;3.15;;
64029;SDS011;50277;52.064;4.492;2022-11-27T05:26:40;10.13;;;2.53;;
64029;SDS011;50277;52.064;4.492;2022-11-27T05:29:06;7.50;;;2.95;;
64029;SDS011;50277;52.064;4.492;2022-11-27T05:31:32;11.00;;;3.22;;
64029;SDS011;50277;52.064;4.492;2022-11-27T05:33:58;7.53;;;2.60;;
64029;SDS011;50277;52.064;4.492;2022-11-27T05:36:23;13.48;;;3.25;;
64029;SDS011;50277;52.064;4.492;2022-11-27T05:38:48;8.50;;;2.58;;
64029;SDS011;50277;52.064;4.492;2022-11-27T05:41:14;8.27;;;2.92;;
64029;SDS011;50277;52.064;4.492;2022-11-27T05:43:39;8.38;;;2.90;;
64029;SDS011;50277;52.064;4.492;2022-11-27T05:46:06;12.10;;;2.63;;
64029;SDS011;50277;52.064;4.492;2022-11-27T05:48:32;7.88;;;3.00;;
64029;SDS011;50277;52.064;4.492;2022-11-27T05:50:58;9.32;;;3.45;;
64029;SDS011;50277;52.064;4.492;2022-11-27T05:53:24;9.40;;;2.95;;
64029;SDS011;50277;52.064;4.492;2022-11-27T05:55:49;12.60;;;2.92;;
64029;SDS011;50277;52.064;4.492;2022-11-27T05:58:14;7.30;;;2.53;;
64029;SDS011;50277;52.064;4.492;2022-11-27T06:00:40;4.72;;;2.40;;
64029;SDS011;50277;52.064;4.492;2022-11-27T06:03:05;7.70;;;2.53;;
64029;SDS011;50277;52.064;4.492;2022-11-27T06:05:31;6.15;;;2.53;;
64029;SDS011;50277;52.064;4.492;2022-11-27T06:07:56;7.18;;;2.90;;
64029;SDS011;50277;52.064;4.492;2022-11-27T06:10:21;8.52;;;2.67;;
64029;SDS011;50277;52.064;4.492;2022-11-27T06:12:47;10.00;;;2.60;;
64029;SDS011;50277;52.064;4.492;2022-11-27T06:15:12;7.50;;;2.50;;
64029;SDS011;50277;52.064;4.492;2022-11-27T06:17:37;4.80;;;2.55;;
64029;SDS011;50277;52.064;4.492;2022-11-27T06:20:03;9.05;;;2.40;;
64029;SDS011;50277;52.064;4.492;2022-11-27T06:22:29;6.97;;;2.38;;
64029;SDS011;50277;52.064;4.492;2022-11-27T06:24:54;5.63;;;2.42;;
64029;SDS011;50277;52.064;4.492;2022-11-27T06:27:20;6.68;;;2.80;;
64029;SDS011;50277;52.064;4.492;2022-11-27T06:29:45;5.25;;;2.17;;
64029;SDS011;50277;52.064;4.492;2022-11-27T06:32:10;7.95;;;2.92;;
64029;SDS011;50277;52.064;4.492;2022-11-27T06:34:36;5.20;;;2.63;;
64029;SDS011;50277;52.064;4.492;2022-11-27T06:37:01;5.95;;;2.28;;
64029;SDS011;50277;52.064;4.492;2022-11-27T06:39:26;7.00;;;2.28;;
64029;SDS011;50277;52.064;4.492;2022-11-27T06:41:51;7.13;;;2.67;;
64029;SDS011;50277;52.064;4.492;2022-11-27T06:44:17;4.53;;;2.50;;
64029;SDS011;50277;52.064;4.492;2022-11-27T06:46:42;8.45;;;2.35;;
64029;SDS011;50277;52.064;4.492;2022-11-27T06:49:08;13.27;;;4.03;;
64029;SDS011;50277;52.064;4.492;2022-11-27T06:51:33;6.80;;;2.35;;
64029;SDS011;50277;52.064;4.492;2022-11-27T06:53:59;6.68;;;2.20;;
64029;SDS011;50277;52.064;4.492;2022-11-27T06:56:26;8.32;;;2.78;;
64029;SDS011;50277;52.064;4.492;2022-11-27T06:58:53;9.15;;;2.42;;
64029;SDS011;50277;52.064;4.492;2022-11-27T07:01:20;8.52;;;2.50;;
64029;SDS011;50277;52.064;4.492;2022-11-27T07:03:45;9.52;;;2.67;;
64029;SDS011;50277;52.064;4.492;2022-11-27T07:06:12;8.75;;;2.75;;
64029;SDS011;50277;52.064;4.492;2022-11-27T07:08:41;5.20;;;2.55;;
64029;SDS011;50277;52.064;4.492;2022-11-27T07:11:09;9.55;;;2.83;;
64029;SDS011;50277;52.064;4.492;2022-11-27T07:13:36;4.90;;;2.47;;
64029;SDS011;50277;52.064;4.492;2022-11-27T07:16:03;6.15;;;2.03;;
64029;SDS011;50277;52.064;4.492;2022-11-27T07:18:33;6.57;;;2.40;;
64029;SDS011;50277;52.064;4.492;2022-11-27T07:21:00;6.32;;;2.53;;
64029;SDS011;50277;52.064;4.492;2022-11-27T07:23:26;6.78;;;2.47;;
64029;SDS011;50277;52.064;4.492;2022-11-27T07:25:51;5.47;;;2.20;;
64029;SDS011;50277;52.064;4.492;2022-11-27T07:28:16;4.93;;;2.08;;
64029;SDS011;50277;52.064;4.492;2022-11-27T07:30:42;4.68;;;2.53;;
64029;SDS011;50277;52.064;4.492;2022-11-27T07:33:07;6.72;;;2.22;;
64029;SDS011;50277;52.064;4.492;2022-11-27T07:35:32;4.93;;;2.10;;
64029;SDS011;50277;52.064;4.492;2022-11-27T07:37:58;6.53;;;2.65;;
64029;SDS011;50277;52.064;4.492;2022-11-27T07:40:23;4.45;;;2.00;;
64029;SDS011;50277;52.064;4.492;2022-11-27T07:42:49;11.88;;;2.72;;
64029;SDS011;50277;52.064;4.492;2022-11-27T07:45:14;5.65;;;2.45;;
64029;SDS011;50277;52.064;4.492;2022-11-27T07:47:39;3.90;;;2.08;;
64029;SDS011;50277;52.064;4.492;2022-11-27T07:50:05;5.95;;;2.40;;
64029;SDS011;50277;52.064;4.492;2022-11-27T07:52:33;6.25;;;2.88;;
64029;SDS011;50277;52.064;4.492;2022-11-27T07:54:59;7.72;;;2.75;;
64029;SDS011;50277;52.064;4.492;2022-11-27T07:57:25;9.90;;;3.50;;
64029;SDS011;50277;52.064;4.492;2022-11-27T07:59:51;5.90;;;2.78;;
64029;SDS011;50277;52.064;4.492;2022-11-27T08:02:17;6.50;;;2.55;;
64029;SDS011;50277;52.064;4.492;2022-11-27T08:04:42;4.72;;;2.60;;
64029;SDS011;50277;52.064;4.492;2022-11-27T08:07:07;7.55;;;2.60;;
64029;SDS011;50277;52.064;4.492;2022-11-27T08:09:32;8.38;;;3.15;;
64029;SDS011;50277;52.064;4.492;2022-11-27T08:11:58;6.65;;;2.90;;
64029;SDS011;50277;52.064;4.492;2022-11-27T08:14:23;8.35;;;2.85;;
64029;SDS011;50277;52.064;4.492;2022-11-27T08:16:48;8.35;;;2.70;;
64029;SDS011;50277;52.064;4.492;2022-11-27T08:19:14;4.88;;;3.10;;
64029;SDS011;50277;52.064;4.492;2022-11-27T08:21:39;5.78;;;2.78;;
64029;SDS011;50277;52.064;4.492;2022-11-27T08:24:04;5.63;;;3.10;;
64029;SDS011;50277;52.064;4.492;2022-11-27T08:26:30;4.80;;;2.78;;
64029;SDS011;50277;52.064;4.492;2022-11-27T08:28:55;7.57;;;2.53;;
64029;SDS011;50277;52.064;4.492;2022-11-27T08:31:21;6.20;;;3.53;;
64029;SDS011;50277;52.064;4.492;2022-11-27T08:33:47;8.30;;;3.15;;
64029;SDS011;50277;52.064;4.492;2022-11-27T08:36:12;7.68;;;2.65;;
64029;SDS011;50277;52.064;4.492;2022-11-27T08:38:37;7.63;;;2.95;;
64029;SDS011;50277;52.064;4.492;2022-11-27T08:41:03;6.32;;;2.70;;
64029;SDS011;50277;52.064;4.492;2022-11-27T08:43:30;8.35;;;2.92;;
64029;SDS011;50277;52.064;4.492;2022-11-27T08:45:57;7.65;;;3.47;;
64029;SDS011;50277;52.064;4.492;2022-11-27T08:48:23;8.63;;;3.13;;
64029;SDS011;50277;52.064;4.492;2022-11-27T08:50:49;8.68;;;3.55;;
64029;SDS011;50277;52.064;4.492;2022-11-27T08:53:15;5.68;;;3.40;;
64029;SDS011;50277;52.064;4.492;2022-11-27T08:55:41;10.80;;;3.33;;
64029;SDS011;50277;52.064;4.492;2022-11-27T08:58:06;5.32;;;3.00;;
64029;SDS011;50277;52.064;4.492;2022-11-27T09:00:32;7.22;;;3.30;;
64029;SDS011;50277;52.064;4.492;2022-11-27T09:02:58;11.88;;;3.30;;
64029;SDS011;50277;52.064;4.492;2022-11-27T09:05:24;8.88;;;3.72;;
64029;SDS011;50277;52.064;4.492;2022-11-27T09:07:50;11.43;;;3.85;;
64029;SDS011;50277;52.064;4.492;2022-11-27T09:10:16;12.55;;;3.65;;
64029;SDS011;50277;52.064;4.492;2022-11-27T09:12:41;7.25;;;3.75;;
64029;SDS011;50277;52.064;4.492;2022-11-27T09:15:08;10.93;;;3.42;;
64029;SDS011;50277;52.064;4.492;2022-11-27T09:17:35;9.93;;;3.67;;
64029;SDS011;50277;52.064;4.492;2022-11-27T09:20:00;8.52;;;3.72;;
64029;SDS011;50277;52.064;4.492;2022-11-27T09:22:25;7.00;;;3.47;;
64029;SDS011;50277;52.064;4.492;2022-11-27T09:24:51;8.40;;;3.63;;
64029;SDS011;50277;52.064;4.492;2022-11-27T09:27:16;7.45;;;3.40;;
64029;SDS011;50277;52.064;4.492;2022-11-27T09:29:41;8.07;;;4.00;;
64029;SDS011;50277;52.064;4.492;2022-11-27T09:32:07;6.65;;;3.58;;
64029;SDS011;50277;52.064;4.492;2022-11-27T09:34:32;9.35;;;3.70;;
64029;SDS011;50277;52.064;4.492;2022-11-27T09:36:57;9.65;;;3.67;;
64029;SDS011;50277;52.064;4.492;2022-11-27T09:39:23;6.95;;;4.05;;
64029;SDS011;50277;52.064;4.492;2022-11-27T09:41:54;7.68;;;4.20;;
64029;SDS011;50277;52.064;4.492;2022-11-27T09:44:22;10.25;;;3.50;;
64029;SDS011;50277;52.064;4.492;2022-11-27T09:46:51;9.10;;;4.32;;
64029;SDS011;50277;52.064;4.492;2022-11-27T09:49:23;7.07;;;3.42;;
64029;SDS011;50277;52.064;4.492;2022-11-27T09:51:59;6.93;;;3.85;;
64029;SDS011;50277;52.064;4.492;2022-11-27T09:57:00;11.07;;;4.13;;
64029;SDS011;50277;52.064;4.492;2022-11-27T09:59:32;9.55;;;4.10;;
64029;SDS011;50277;52.064;4.492;2022-11-27T10:02:08;8.23;;;3.83;;
64029;SDS011;50277;52.064;4.492;2022-11-27T10:07:16;10.23;;;4.20;;
64029;SDS011;50277;52.064;4.492;2022-11-27T10:15:12;10.90;;;3.70;;
64029;SDS011;50277;52.064;4.492;2022-11-27T10:17:43;8.68;;;4.20;;
64029;SDS011;50277;52.064;4.492;2022-11-27T10:23:02;13.75;;;4.65;;
64029;SDS011;50277;52.064;4.492;2022-11-27T10:25:42;10.30;;;4.13;;
64029;SDS011;50277;52.064;4.492;2022-11-27T10:30:36;11.65;;;4.72;;
64029;SDS011;50277;52.064;4.492;2022-11-27T10:33:06;7.43;;;4.25;;
64029;SDS011;50277;52.064;4.492;2022-11-27T10:35:39;10.23;;;4.45;;
64029;SDS011;50277;52.064;4.492;2022-11-27T10:38:38;6.95;;;4.30;;
64029;SDS011;50277;52.064;4.492;2022-11-27T10:43:54;10.05;;;4.43;;
64029;SDS011;50277;52.064;4.492;2022-11-27T10:46:26;14.05;;;4.63;;
64029;SDS011;50277;52.064;4.492;2022-11-27T10:48:52;9.95;;;4.95;;
64029;SDS011;50277;52.064;4.492;2022-11-27T10:51:20;11.23;;;4.57;;
64029;SDS011;50277;52.064;4.492;2022-11-27T10:53:51;13.82;;;5.05;;
64029;SDS011;50277;52.064;4.492;2022-11-27T10:59:33;10.25;;;4.63;;
64029;SDS011;50277;52.064;4.492;2022-11-27T11:02:04;12.60;;;4.75;;
64029;SDS011;50277;52.064;4.492;2022-11-27T11:04:31;9.85;;;4.75;;
64029;SDS011;50277;52.064;4.492;2022-11-27T11:06:56;6.95;;;5.05;;
64029;SDS011;50277;52.064;4.492;2022-11-27T11:09:32;13.35;;;5.28;;
64029;SDS011;50277;52.064;4.492;2022-11-27T11:12:05;9.38;;;5.35;;
64029;SDS011;50277;52.064;4.492;2022-11-27T11:14:31;15.07;;;5.18;;
64029;SDS011;50277;52.064;4.492;2022-11-27T11:16:56;14.90;;;4.93;;
64029;SDS011;50277;52.064;4.492;2022-11-27T11:19:23;9.18;;;4.68;;
64029;SDS011;50277;52.064;4.492;2022-11-27T11:22:02;10.48;;;4.47;;
64029;SDS011;50277;52.064;4.492;2022-11-27T11:24:29;10.25;;;4.95;;
64029;SDS011;50277;52.064;4.492;2022-11-27T11:26:56;10.35;;;4.90;;
64029;SDS011;50277;52.064;4.492;2022-11-27T11:34:40;8.93;;;5.07;;
64029;SDS011;50277;52.064;4.492;2022-11-27T11:37:13;12.98;;;5.32;;
64029;SDS011;50277;52.064;4.492;2022-11-27T11:39:44;11.00;;;4.72;;
64029;SDS011;50277;52.064;4.492;2022-11-27T11:42:19;13.02;;;5.05;;
64029;SDS011;50277;52.064;4.492;2022-11-27T11:45:11;13.40;;;5.30;;
64029;SDS011;50277;52.064;4.492;2022-11-27T11:47:34;9.75;;;4.78;;
64029;SDS011;50277;52.064;4.492;2022-11-27T11:50:10;11.27;;;5.25;;
64029;SDS011;50277;52.064;4.492;2022-11-27T11:58:28;11.15;;;5.25;;
64029;SDS011;50277;52.064;4.492;2022-11-27T12:01:12;10.35;;;5.22;;
64029;SDS011;50277;52.064;4.492;2022-11-27T12:15:29;15.95;;;5.22;;
64029;SDS011;50277;52.064;4.492;2022-11-27T12:20:26;13.67;;;6.30;;
64029;SDS011;50277;52.064;4.492;2022-11-27T12:28:31;14.85;;;7.18;;
64029;SDS011;50277;52.064;4.492;2022-11-27T12:33:32;12.05;;;6.18;;
64029;SDS011;50277;52.064;4.492;2022-11-27T12:38:47;10.38;;;6.28;;
64029;SDS011;50277;52.064;4.492;2022-11-27T12:43:56;10.48;;;5.88;;
64029;SDS011;50277;52.064;4.492;2022-11-27T12:46:43;14.52;;;6.18;;
64029;SDS011;50277;52.064;4.492;2022-11-27T12:52:00;8.35;;;5.72;;
64029;SDS011;50277;52.064;4.492;2022-11-27T12:54:37;8.93;;;5.68;;
64029;SDS011;50277;52.064;4.492;2022-11-27T12:57:15;13.90;;;7.00;;
64029;SDS011;50277;52.064;4.492;2022-11-27T12:59:48;8.15;;;5.50;;
64029;SDS011;50277;52.064;4.492;2022-11-27T13:04:51;8.63;;;5.25;;
64029;SDS011;50277;52.064;4.492;2022-11-27T13:07:22;13.70;;;6.38;;
64029;SDS011;50277;52.064;4.492;2022-11-27T13:10:02;10.32;;;5.18;;
64029;SDS011;50277;52.064;4.492;2022-11-27T13:12:38;13.40;;;5.32;;
64029;SDS011;50277;52.064;4.492;2022-11-27T13:15:07;11.38;;;5.25;;
64029;SDS011;50277;52.064;4.492;2022-11-27T13:17:41;7.70;;;5.25;;
64029;SDS011;50277;52.064;4.492;2022-11-27T13:20:18;7.32;;;5.45;;
64029;SDS011;50277;52.064;4.492;2022-11-27T13:22:46;7.93;;;5.43;;
64029;SDS011;50277;52.064;4.492;2022-11-27T13:25:12;10.95;;;5.78;;
64029;SDS011;50277;52.064;4.492;2022-11-27T13:27:38;8.55;;;5.63;;
64029;SDS011;50277;52.064;4.492;2022-11-27T13:30:17;15.15;;;5.35;;
64029;SDS011;50277;52.064;4.492;2022-11-27T13:32:51;13.02;;;6.18;;
64029;SDS011;50277;52.064;4.492;2022-11-27T13:40:35;12.68;;;5.93;;
64029;SDS011;50277;52.064;4.492;2022-11-27T13:43:19;8.45;;;6.13;;
64029;SDS011;50277;52.064;4.492;2022-11-27T13:45:45;7.70;;;5.53;;
64029;SDS011;50277;52.064;4.492;2022-11-27T13:48:18;8.50;;;6.03;;
64029;SDS011;50277;52.064;4.492;2022-11-27T13:53:15;7.27;;;5.33;;
64029;SDS011;50277;52.064;4.492;2022-11-27T13:55:50;14.30;;;6.65;;
64029;SDS011;50277;52.064;4.492;2022-11-27T13:58:30;11.93;;;6.88;;
64029;SDS011;50277;52.064;4.492;2022-11-27T14:00:56;12.20;;;6.85;;
64029;SDS011;50277;52.064;4.492;2022-11-27T14:03:23;9.85;;;6.18;;
64029;SDS011;50277;52.064;4.492;2022-11-27T14:08:20;9.60;;;6.30;;
64029;SDS011;50277;52.064;4.492;2022-11-27T14:11:01;9.90;;;6.47;;
64029;SDS011;50277;52.064;4.492;2022-11-27T14:13:32;9.10;;;6.22;;
64029;SDS011;50277;52.064;4.492;2022-11-27T14:16:06;8.52;;;6.22;;
64029;SDS011;50277;52.064;4.492;2022-11-27T14:18:50;11.23;;;6.15;;
64029;SDS011;50277;52.064;4.492;2022-11-27T14:21:24;11.45;;;6.05;;
64029;SDS011;50277;52.064;4.492;2022-11-27T14:26:50;10.32;;;5.90;;
64029;SDS011;50277;52.064;4.492;2022-11-27T14:29:18;11.65;;;6.72;;
64029;SDS011;50277;52.064;4.492;2022-11-27T14:31:44;9.15;;;6.00;;
64029;SDS011;50277;52.064;4.492;2022-11-27T14:36:54;9.55;;;6.00;;
64029;SDS011;50277;52.064;4.492;2022-11-27T14:39:21;8.50;;;6.00;;
64029;SDS011;50277;52.064;4.492;2022-11-27T14:42:03;11.27;;;6.43;;
64029;SDS011;50277;52.064;4.492;2022-11-27T14:44:32;11.02;;;7.32;;
64029;SDS011;50277;52.064;4.492;2022-11-27T14:46:59;13.23;;;7.35;;
64029;SDS011;50277;52.064;4.492;2022-11-27T14:49:27;9.95;;;7.25;;
64029;SDS011;50277;52.064;4.492;2022-11-27T14:51:53;11.80;;;8.10;;
64029;SDS011;50277;52.064;4.492;2022-11-27T14:54:24;11.77;;;8.20;;
64029;SDS011;50277;52.064;4.492;2022-11-27T14:56:53;12.13;;;7.95;;
64029;SDS011;50277;52.064;4.492;2022-11-27T14:59:20;13.32;;;8.98;;
64029;SDS011;50277;52.064;4.492;2022-11-27T15:02:00;14.05;;;9.43;;
64029;SDS011;50277;52.064;4.492;2022-11-27T15:04:38;11.90;;;8.90;;
64029;SDS011;50277;52.064;4.492;2022-11-27T15:07:14;10.90;;;8.98;;
64029;SDS011;50277;52.064;4.492;2022-11-27T15:09:42;11.13;;;9.20;;
64029;SDS011;50277;52.064;4.492;2022-11-27T15:12:17;17.57;;;9.83;;
64029;SDS011;50277;52.064;4.492;2022-11-27T15:14:50;16.35;;;9.90;;
64029;SDS011;50277;52.064;4.492;2022-11-27T15:17:24;14.32;;;9.57;;
64029;SDS011;50277;52.064;4.492;2022-11-27T15:19:51;12.55;;;10.20;;
64029;SDS011;50277;52.064;4.492;2022-11-27T15:22:18;18.35;;;10.02;;
64029;SDS011;50277;52.064;4.492;2022-11-27T15:24:43;18.83;;;9.63;;
64029;SDS011;50277;52.064;4.492;2022-11-27T15:29:37;20.05;;;8.52;;
64029;SDS011;50277;52.064;4.492;2022-11-27T15:32:14;16.20;;;8.80;;
64029;SDS011;50277;52.064;4.492;2022-11-27T15:34:41;11.35;;;8.02;;
64029;SDS011;50277;52.064;4.492;2022-11-27T15:37:23;15.55;;;7.70;;
64029;SDS011;50277;52.064;4.492;2022-11-27T15:39:52;13.30;;;6.95;;
64029;SDS011;50277;52.064;4.492;2022-11-27T15:42:18;12.82;;;7.22;;
64029;SDS011;50277;52.064;4.492;2022-11-27T15:44:45;13.52;;;7.43;;
64029;SDS011;50277;52.064;4.492;2022-11-27T15:47:27;13.30;;;7.40;;
64029;SDS011;50277;52.064;4.492;2022-11-27T15:49:55;15.52;;;7.65;;
64029;SDS011;50277;52.064;4.492;2022-11-27T15:52:20;16.92;;;6.97;;
64029;SDS011;50277;52.064;4.492;2022-11-27T15:54:45;17.75;;;7.32;;
64029;SDS011;50277;52.064;4.492;2022-11-27T15:57:11;15.00;;;6.80;;
64029;SDS011;50277;52.064;4.492;2022-11-27T15:59:37;23.35;;;7.55;;
64029;SDS011;50277;52.064;4.492;2022-11-27T16:02:02;11.52;;;6.95;;
64029;SDS011;50277;52.064;4.492;2022-11-27T16:04:28;15.27;;;7.40;;
64029;SDS011;50277;52.064;4.492;2022-11-27T16:06:53;11.45;;;6.38;;
64029;SDS011;50277;52.064;4.492;2022-11-27T16:09:18;12.05;;;7.05;;
64029;SDS011;50277;52.064;4.492;2022-11-27T16:11:44;11.98;;;6.68;;
64029;SDS011;50277;52.064;4.492;2022-11-27T16:14:09;12.45;;;6.97;;
64029;SDS011;50277;52.064;4.492;2022-11-27T16:16:35;15.35;;;7.80;;
64029;SDS011;50277;52.064;4.492;2022-11-27T16:19:01;14.68;;;7.18;;
64029;SDS011;50277;52.064;4.492;2022-11-27T16:21:28;11.38;;;7.38;;
64029;SDS011;50277;52.064;4.492;2022-11-27T16:23:58;15.02;;;7.55;;
64029;SDS011;50277;52.064;4.492;2022-11-27T16:26:28;16.02;;;7.22;;
64029;SDS011;50277;52.064;4.492;2022-11-27T16:28:53;14.15;;;7.60;;
64029;SDS011;50277;52.064;4.492;2022-11-27T16:31:19;12.10;;;7.25;;
64029;SDS011;50277;52.064;4.492;2022-11-27T16:33:45;14.18;;;7.88;;
64029;SDS011;50277;52.064;4.492;2022-11-27T16:36:11;16.35;;;7.10;;
64029;SDS011;50277;52.064;4.492;2022-11-27T16:38:38;10.55;;;6.70;;
64029;SDS011;50277;52.064;4.492;2022-11-27T16:41:05;14.57;;;7.03;;
64029;SDS011;50277;52.064;4.492;2022-11-27T16:43:33;10.45;;;6.93;;
64029;SDS011;50277;52.064;4.492;2022-11-27T16:46:21;9.23;;;6.65;;
64029;SDS011;50277;52.064;4.492;2022-11-27T16:48:46;11.63;;;7.35;;
64029;SDS011;50277;52.064;4.492;2022-11-27T16:53:46;9.85;;;6.97;;
64029;SDS011;50277;52.064;4.492;2022-11-27T16:56:13;10.45;;;6.88;;